Alvarez, Argentina
Current Conditions -  °F | °C
As of 10:00 PM on Sunday 21 Dec 2014 (Local Time) from SAAR Reporting Station
Overcast Overcast  
Wind Chill: 66°   Ceiling: 10000
Heat Index: 66°   Visibility: 6mi
Dew Point: 41°   Wind: 7mph
Humidity: 40%   Direction: 230°SW
Pressure: 29.91"   Gusts: NA
Location:  33.08°S, 60.77°W
Report Text: SAAR 220100Z 23006KT 9999 SCT022 BKN100OVC200 19/05 Q1013
Loading
Personal Weather Stations






























Interactive Weather Map New forecast layout! Learn more

10-Day Weather Forecast

Advertisements
Track Severe Weather on mobile